ADDS METAR Data INFO
IDs: Format: Raw Decoded Include TAF

Data at: 0838 UTC 27 Jun 2017

KAXH 270815Z AUTO 00000KT 10SM SCT036 23/22 A3000 RMK AO2 T02270218
KAXH 270755Z AUTO 00000KT 10SM CLR 23/22 A3000 RMK AO2 LTG DSNT SE T02260217
KAXH 270735Z AUTO 00000KT 10SM CLR 23/22 A3000 RMK AO2 T02260217
KAXH 270715Z AUTO 03003KT 10SM CLR 23/22 A3001 RMK AO2 T02260216
KAXH 270655Z AUTO 00000KT 10SM CLR 23/22 A3001 RMK AO2 T02260215
KAXH 270635Z AUTO 02003KT 10SM CLR 23/22 A3002 RMK AO2 T02260215
KAXH 270615Z AUTO 00000KT 10SM CLR 23/22 A3002 RMK AO2 T02250215
KAXH 270555Z AUTO 00000KT 10SM CLR 23/22 A3002 RMK AO2 60064 T02250215 10255 20221
KAXH 270535Z AUTO 00000KT 10SM CLR 23/22 A3002 RMK AO2 T02270215
KAXH 270515Z AUTO 10003KT 10SM CLR 23/22 A3003 RMK AO2 T02270216
KAXH 270455Z AUTO 00000KT 10SM CLR 23/22 A3002 RMK AO2 P0001 T02270217
KAXH 270435Z AUTO 00000KT 7SM -RA SCT043 SCT050 BKN070 23/22 A3002 RMK AO2 LTG DSNT SW P0001 T02260216
KAXH 270415Z AUTO 14004KT 10SM DZ SCT070 OVC095 23/22 A3002 RMK AO2 LTG DSNT E P0001 T02250215
KAXH 270355Z AUTO 13003KT 7SM -RA SCT070 OVC085 23/22 A3003 RMK AO2 LTG DSNT E P0021 T02250215
KAXH 270335Z AUTO 10003KT 7SM -VCTSRA SCT040 SCT060 OVC070 22/21 A3003 RMK AO2 LTG DSNT E P0019 T02220213
KAXH 270315Z AUTO 00000KT 4SM RA SCT024 BKN043 OVC050 22/21 A3004 RMK AO2 LTG DSNT E P0015 T02210211
KAXH 270255Z AUTO 13007KT 5SM +VCTSRA SCT029 BKN050 OVC060 23/21 A3004 RMK AO2 LTG DSNT NE AND E P0022 60041 T02250214
KAXH 270235Z AUTO 15004KT 7SM VCTSRA SCT005 BKN034 OVC050 23/22 A3004 RMK AO2 LTG DSNT E AND SW P0014 T02260216
KAXH 270215Z AUTO 16004KT 5SM -VCTSRA SCT008 BKN017 OVC032 23/22 A3003 RMK AO2 LTG DSNT E AND SE P0006 T02280216
KAXH 270155Z AUTO 00000KT 7SM -RA SCT021 BKN028 OVC095 25/24 A3001 RMK AO2 LTG DSNT SE P0018 T02460235
KAXH 270135Z AUTO 35003KT 3SM RA SCT010 BKN018 OVC095 25/24 A3001 RMK AO2 LTG DSNT E P0017 T02460235
KAXH 270115Z AUTO 03003KT 7SM SCT018 SCT023 BKN095 25/24 A3001 RMK AO2 T02520241
KAXH 270055Z AUTO 00000KT 10SM SCT037 SCT043 SCT095 25/24 A3001 RMK AO2 LTG DSNT N P0001 T02540241
KAXH 270035Z AUTO 00000KT 7SM -DZ SCT019 SCT028 SCT033 25/24 A3001 RMK AO2 LTG DSNT N AND NE P0001 T02510240
KAXH 270015Z AUTO 00000KT 7SM DZ BKN017 BKN030 OVC080 25/24 A3001 RMK AO2 LTG DSNT NE T02520240
KAXH 262355Z AUTO 03003KT 10SM -TSRA SCT048 BKN080 OVC095 25/24 A3001 RMK AO2 LTG DSNT NE P0008 60087 T02520240 10319 20229
KAXH 262335Z AUTO 00000KT 5SM -RA SCT050 OVC060 25/24 A3000 RMK AO2 P0007 T02470236
KAXH 262315Z AUTO 00000KT 3SM RA SCT049 OVC060 25/24 A3000 RMK AO2 LTG DSNT W P0005 T02470236
KAXH 262255Z AUTO 18003KT 2 1/2SM +RA SCT012 BKN044 OVC070 25/24 A3000 RMK AO2 LTG DSNT NW P0012 T02470235
KAXH 262235Z AUTO 11004KT 7SM RA SCT020 BKN029 OVC065 25/24 A3001 RMK AO2 P0002 T02460235
KAXH 262215Z AUTO 00000KT 7SM -TSRA SCT021 BKN050 OVC075 24/22 A3001 RMK AO2 LTG DSNT SW THRU NW P0001 T02370224
KAXH 262155Z AUTO 16006KT 7SM -TSRA SCT017 BKN040 OVC050 23/22 A3002 RMK AO2 LTG DSNT ALQS P0065 T02310220
KAXH 262135Z AUTO 21004KT 1SM +TSRA BKN017 OVC022 24/23 A3003 RMK AO2 LTG DSNT ALQS P0061 T02400230
KAXH 262115Z AUTO 07004KT 1 3/4SM +VCTSRA SCT016 BKN022 OVC033 24/23 A3002 RMK AO2 LTG DSNT W AND NW P0026 T02420230
KAXH 262055Z AUTO 05014G17KT 7SM RA OVC031 27/23 A3001 RMK AO2 LTG DSNT SW P0001 60001 T02730234
KAXH 262035Z AUTO 13005KT 10SM VCTS BKN033 BKN039 OVC048 29/23 A3001 RMK AO2 LTG DSNT SW T02910233
KAXH 262015Z AUTO 11009KT 10SM BKN037 BKN055 BKN075 31/23 A3001 RMK AO2 LTG DSNT SW T03100228
KAXH 261955Z AUTO 09006KT 10SM SCT033 BKN043 BKN055 30/23 A3002 RMK AO2 LTG DSNT SW T03010227
KAXH 261935Z AUTO 12008KT 10SM BKN033 BKN049 31/23 A3002 RMK AO2 T03060233
KAXH 261915Z AUTO 10007KT 10SM SCT033 SCT038 BKN060 32/24 A3004 RMK AO2 T03170237
KAXH 261855Z AUTO 08010KT 10SM SCT033 SCT055 32/24 A3004 RMK AO2 T03170236
KAXH 261835Z AUTO 08007KT 10SM SCT030 SCT042 SCT060 31/23 A3005 RMK AO2 T03100232
KAXH 261815Z AUTO 11008KT 050V120 10SM SCT028 SCT038 BKN060 31/24 A3006 RMK AO2 T03130237
KAXH 261755Z AUTO 07005KT 10SM SCT028 SCT050 SCT070 31/24 A3007 RMK AO2 T03090236 10310 20232
KAXH 261735Z AUTO 08005KT 10SM SCT026 SCT033 BKN050 30/24 A3008 RMK AO2 T03000237
KAXH 261715Z AUTO 08007KT 10SM SCT026 31/24 A3009 RMK AO2 T03050238
KAXH 261655Z AUTO 08003KT 10SM SCT024 31/24 A3009 RMK AO2 T03050240
KAXH 261635Z AUTO 06006KT 10SM SCT022 SCT030 29/24 A3009 RMK AO2 T02940237
KAXH 261615Z AUTO 05006KT 10SM SCT020 SCT030 29/24 A3010 RMK AO2 T02920240
KAXH 261555Z AUTO 05006KT 10SM BKN018 BKN025 29/24 A3010 RMK AO2 T02870240
KAXH 261535Z AUTO 05004KT 10SM BKN016 28/24 A3011 RMK AO2 T02820238
KAXH 261515Z AUTO 05006KT 10SM SCT014 28/24 A3011 RMK AO2 T02820237
KAXH 261455Z AUTO 08006KT 10SM BKN012 27/24 A3011 RMK AO2 T02730236
KAXH 261435Z AUTO 07006KT 10SM SCT012 27/23 A3011 RMK AO2 T02660233
KAXH 261415Z AUTO 07006KT 10SM CLR 26/23 A3011 RMK AO2 T02620231
KAXH 261355Z AUTO 09008KT 10SM SCT010 26/23 A3011 RMK AO2 T02560228
KAXH 261335Z AUTO 10008KT 7SM SCT010 26/23 A3011 RMK AO2 T02550228
KAXH 261315Z AUTO 09005KT 10SM CLR 25/22 A3010 RMK AO2 T02450224
KAXH 261255Z AUTO 08003KT 10SM SCT017 24/22 A3010 RMK AO2 T02400221
KAXH 261235Z AUTO 05003KT 10SM SCT015 BKN120 24/22 A3010 RMK AO2 T02350220
KAXH 261215Z AUTO 04004KT 10SM SCT013 SCT120 24/22 A3009 RMK AO2 T02350220
KAXH 261155Z AUTO 03005KT 10SM BKN013 23/22 A3009 RMK AO2 T02330220 10243 20233
KAXH 261135Z AUTO 02004KT 10SM CLR 23/22 A3009 RMK AO2 T02330220
KAXH 261115Z AUTO 03004KT 10SM CLR 24/22 A3009 RMK AO2 T02350220
KAXH 261055Z AUTO 03003KT 10SM CLR 24/22 A3009 RMK AO2 T02350221
KAXH 261035Z AUTO 02003KT 10SM SCT049 SCT060 SCT095 24/22 A3008 RMK AO2 T02360223
KAXH 261015Z AUTO 00000KT 10SM SCT019 SCT034 SCT040 24/22 A3008 RMK AO2 T02370223
KAXH 260955Z AUTO 00000KT 10SM SCT019 SCT034 24/22 A3009 RMK AO2 T02380224
KAXH 260935Z AUTO 00000KT 10SM SCT021 24/23 A3008 RMK AO2 LTG DSNT E T02400225
KAXH 260915Z AUTO 04003KT 10SM -DZ SCT024 SCT032 24/23 A3009 RMK AO2 T02400225
KAXH 260855Z AUTO 00000KT 10SM SCT024 SCT030 24/23 A3009 RMK AO2 T02400225
KAXH 260835Z AUTO 00000KT 10SM CLR 24/23 A3009 RMK AO2 T02410225
KAXH 260815Z AUTO 00000KT 10SM SCT015 24/23 A3009 RMK AO2 T02420225
KAXH 260755Z AUTO 00000KT 10SM OVC015 24/23 A3009 RMK AO2 T02410225
KAXH 260735Z AUTO 00000KT 10SM OVC015 24/23 A3009 RMK AO2 T02410225
KAXH 260715Z AUTO 00000KT 10SM BKN015 24/22 A3009 RMK AO2 T02380223
KAXH 260655Z AUTO 14003KT 10SM CLR 24/22 A3010 RMK AO2 T02400223
KAXH 260635Z AUTO 10003KT 10SM CLR 24/22 A3010 RMK AO2 T02410223
KAXH 260615Z AUTO 08005KT 10SM CLR 24/22 A3010 RMK AO2 T02410221
KAXH 260555Z AUTO 10004KT 10SM CLR 24/22 A3011 RMK AO2 T02430220 10292 20243
KAXH 260535Z AUTO 10006KT 10SM SCT026 25/22 A3012 RMK AO2 T02460217
KAXH 260515Z AUTO 10005KT 10SM SCT022 SCT029 25/22 A3012 RMK AO2 T02500218
KAXH 260455Z AUTO 08008G14KT 10SM BKN021 BKN032 BKN039 25/22 A3013 RMK AO2 T02520222
KAXH 260435Z AUTO 08006KT 10SM SCT032 SCT043 SCT120 25/23 A3012 RMK AO2 T02500226
KAXH 260415Z AUTO 00000KT 10SM SCT043 25/23 A3011 RMK AO2 T02530226
KAXH 260355Z AUTO 00000KT 10SM SCT120 25/23 A3011 RMK AO2 T02450227
KAXH 260335Z AUTO 00000KT 10SM SCT120 25/23 A3011 RMK AO2 T02460228
KAXH 260315Z AUTO 00000KT 10SM CLR 25/23 A3011 RMK AO2 T02490230
KAXH 260255Z AUTO 00000KT 10SM CLR 26/23 A3010 RMK AO2 T02570231
KAXH 260235Z AUTO 00000KT 10SM CLR 26/23 A3009 RMK AO2 T02550231
KAXH 260215Z AUTO 00000KT 10SM CLR 26/23 A3009 RMK AO2 LTG DSNT E T02550230
KAXH 260155Z AUTO 00000KT 10SM CLR 26/23 A3009 RMK AO2 T02570230
KAXH 260135Z AUTO 00000KT 10SM CLR 26/23 A3009 RMK AO2 T02600230
KAXH 260115Z AUTO 00000KT 10SM CLR 27/23 A3008 RMK AO2 T02680230
KAXH 260055Z AUTO 10003KT 10SM CLR 27/23 A3008 RMK AO2 T02700229
KAXH 260035Z AUTO 13006KT 10SM CLR 28/23 A3008 RMK AO2 T02810230
KAXH 260015Z AUTO 10007KT 10SM CLR 29/23 A3009 RMK AO2 T02900228
KAXH 252355Z AUTO 11006KT 10SM SCT029 SCT034 29/23 A3008 RMK AO2 T02930226 10307 20269
KAXH 252335Z AUTO 11006KT 10SM SCT029 30/23 A3008 RMK AO2 T02960230
KAXH 252315Z AUTO 11006KT 10SM SCT029 30/23 A3007 RMK AO2 T02980234
KAXH 252255Z AUTO 10008KT 10SM SCT029 30/23 A3007 RMK AO2 T03020233
KAXH 252235Z AUTO 12008KT 10SM CLR 30/23 A3008 RMK AO2 T03000230
KAXH 252215Z AUTO 10006KT 10SM SCT027 30/23 A3008 RMK AO2 T02950230
KAXH 252155Z AUTO 09006KT 10SM SCT029 30/24 A3008 RMK AO2 T03040239
KAXH 252135Z AUTO 09010KT 10SM SCT026 SCT037 SCT043 31/24 A3008 RMK AO2 T03060237
KAXH 252115Z AUTO 06007KT 10SM SCT026 SCT036 SCT042 30/24 A3009 RMK AO2 T03040242
KAXH 252055Z AUTO 07007KT 10SM SCT021 SCT031 SCT042 30/24 A3009 RMK AO2 T02950235


Page loaded:  08:38 UTC  |   01:38 AM Pacific  |   02:38 AM Mountain  |   03:38 AM Central  |   04:38 AM Eastern

 

ADVISORIES

FORECASTS

FORECASTS

OBSERVATIONS

USER TOOLS

ABOUT US